sensor_id;sensor_type;location;lat;lon;timestamp;P1;durP1;ratioP1;P2;durP2;ratioP2
80297;SDS011;69599;52.622;9.230;2023-10-08T00:02:08;0.57;;;0.10;;
80297;SDS011;69599;52.622;9.230;2023-10-08T00:04:35;0.10;;;0.10;;
80297;SDS011;69599;52.622;9.230;2023-10-08T00:07:06;0.20;;;0.10;;
80297;SDS011;69599;52.622;9.230;2023-10-08T00:09:32;0.50;;;0.10;;
80297;SDS011;69599;52.622;9.230;2023-10-08T00:12:04;0.10;;;0.10;;
80297;SDS011;69599;52.622;9.230;2023-10-08T00:14:30;1.35;;;0.20;;
80297;SDS011;69599;52.622;9.230;2023-10-08T00:17:08;0.43;;;0.20;;
80297;SDS011;69599;52.622;9.230;2023-10-08T00:19:35;0.47;;;0.15;;
80297;SDS011;69599;52.622;9.230;2023-10-08T00:22:03;0.30;;;0.20;;
80297;SDS011;69599;52.622;9.230;2023-10-08T00:24:31;0.35;;;0.10;;
80297;SDS011;69599;52.622;9.230;2023-10-08T00:26:58;0.13;;;0.10;;
80297;SDS011;69599;52.622;9.230;2023-10-08T00:29:25;0.32;;;0.10;;
80297;SDS011;69599;52.622;9.230;2023-10-08T00:31:51;0.98;;;0.30;;
80297;SDS011;69599;52.622;9.230;2023-10-08T00:34:17;0.75;;;0.20;;
80297;SDS011;69599;52.622;9.230;2023-10-08T00:36:44;0.25;;;0.10;;
80297;SDS011;69599;52.622;9.230;2023-10-08T00:39:12;0.68;;;0.20;;
80297;SDS011;69599;52.622;9.230;2023-10-08T00:41:40;0.30;;;0.10;;
80297;SDS011;69599;52.622;9.230;2023-10-08T00:44:09;2.45;;;0.40;;
80297;SDS011;69599;52.622;9.230;2023-10-08T00:46:40;1.02;;;0.30;;
80297;SDS011;69599;52.622;9.230;2023-10-08T00:49:16;0.57;;;0.10;;
80297;SDS011;69599;52.622;9.230;2023-10-08T00:52:04;0.50;;;0.22;;
80297;SDS011;69599;52.622;9.230;2023-10-08T00:54:34;1.42;;;0.40;;
80297;SDS011;69599;52.622;9.230;2023-10-08T00:57:11;1.05;;;0.28;;
80297;SDS011;69599;52.622;9.230;2023-10-08T00:59:46;0.63;;;0.30;;
80297;SDS011;69599;52.622;9.230;2023-10-08T01:02:18;2.10;;;0.35;;
80297;SDS011;69599;52.622;9.230;2023-10-08T01:04:46;1.17;;;0.30;;
80297;SDS011;69599;52.622;9.230;2023-10-08T01:07:12;0.60;;;0.40;;
80297;SDS011;69599;52.622;9.230;2023-10-08T01:09:38;1.15;;;0.55;;
80297;SDS011;69599;52.622;9.230;2023-10-08T01:12:14;1.95;;;0.68;;
80297;SDS011;69599;52.622;9.230;2023-10-08T01:14:52;2.30;;;0.75;;
80297;SDS011;69599;52.622;9.230;2023-10-08T01:17:19;1.40;;;0.50;;
80297;SDS011;69599;52.622;9.230;2023-10-08T01:19:49;1.73;;;0.30;;
80297;SDS011;69599;52.622;9.230;2023-10-08T01:22:34;1.70;;;0.50;;
80297;SDS011;69599;52.622;9.230;2023-10-08T01:24:59;2.63;;;0.80;;
80297;SDS011;69599;52.622;9.230;2023-10-08T01:27:29;1.50;;;0.50;;
80297;SDS011;69599;52.622;9.230;2023-10-08T01:29:59;3.30;;;1.45;;
80297;SDS011;69599;52.622;9.230;2023-10-08T01:32:37;1.67;;;0.80;;
80297;SDS011;69599;52.622;9.230;2023-10-08T01:35:03;1.45;;;0.40;;
80297;SDS011;69599;52.622;9.230;2023-10-08T01:37:33;2.20;;;0.68;;
80297;SDS011;69599;52.622;9.230;2023-10-08T01:39:59;1.88;;;0.60;;
80297;SDS011;69599;52.622;9.230;2023-10-08T01:42:27;1.75;;;0.70;;
80297;SDS011;69599;52.622;9.230;2023-10-08T01:44:53;2.10;;;0.70;;
80297;SDS011;69599;52.622;9.230;2023-10-08T01:47:21;2.10;;;0.90;;
80297;SDS011;69599;52.622;9.230;2023-10-08T01:49:50;2.28;;;0.80;;
80297;SDS011;69599;52.622;9.230;2023-10-08T01:52:22;2.75;;;1.10;;
80297;SDS011;69599;52.622;9.230;2023-10-08T01:54:48;3.42;;;0.90;;
80297;SDS011;69599;52.622;9.230;2023-10-08T01:57:14;2.15;;;1.10;;
80297;SDS011;69599;52.622;9.230;2023-10-08T01:59:40;1.95;;;0.90;;
80297;SDS011;69599;52.622;9.230;2023-10-08T02:02:05;2.25;;;0.98;;
80297;SDS011;69599;52.622;9.230;2023-10-08T02:04:32;1.52;;;0.80;;
80297;SDS011;69599;52.622;9.230;2023-10-08T02:07:00;2.60;;;0.70;;
80297;SDS011;69599;52.622;9.230;2023-10-08T02:09:26;0.82;;;0.50;;
80297;SDS011;69599;52.622;9.230;2023-10-08T02:11:51;1.77;;;0.60;;
80297;SDS011;69599;52.622;9.230;2023-10-08T02:14:18;2.08;;;0.70;;
80297;SDS011;69599;52.622;9.230;2023-10-08T02:16:45;2.85;;;0.60;;
80297;SDS011;69599;52.622;9.230;2023-10-08T02:19:14;3.60;;;0.80;;
80297;SDS011;69599;52.622;9.230;2023-10-08T02:21:43;2.50;;;0.50;;
80297;SDS011;69599;52.622;9.230;2023-10-08T02:24:11;2.47;;;0.50;;
80297;SDS011;69599;52.622;9.230;2023-10-08T02:26:38;3.50;;;1.05;;
80297;SDS011;69599;52.622;9.230;2023-10-08T02:29:04;1.55;;;0.40;;
80297;SDS011;69599;52.622;9.230;2023-10-08T02:31:42;1.50;;;0.70;;
80297;SDS011;69599;52.622;9.230;2023-10-08T02:34:08;1.52;;;0.60;;
80297;SDS011;69599;52.622;9.230;2023-10-08T02:36:38;1.50;;;0.77;;
80297;SDS011;69599;52.622;9.230;2023-10-08T02:39:07;1.45;;;0.60;;
80297;SDS011;69599;52.622;9.230;2023-10-08T02:41:43;2.97;;;0.57;;
80297;SDS011;69599;52.622;9.230;2023-10-08T02:44:15;1.63;;;0.70;;
80297;SDS011;69599;52.622;9.230;2023-10-08T02:46:42;2.17;;;0.77;;
80297;SDS011;69599;52.622;9.230;2023-10-08T02:49:14;2.90;;;0.60;;
80297;SDS011;69599;52.622;9.230;2023-10-08T02:51:51;1.67;;;0.50;;
80297;SDS011;69599;52.622;9.230;2023-10-08T02:54:18;1.77;;;0.73;;
80297;SDS011;69599;52.622;9.230;2023-10-08T02:56:46;2.08;;;0.60;;
80297;SDS011;69599;52.622;9.230;2023-10-08T02:59:16;2.67;;;0.70;;
80297;SDS011;69599;52.622;9.230;2023-10-08T03:01:41;2.53;;;1.10;;
80297;SDS011;69599;52.622;9.230;2023-10-08T03:04:10;2.63;;;1.40;;
80297;SDS011;69599;52.622;9.230;2023-10-08T03:09:08;2.20;;;1.13;;
80297;SDS011;69599;52.622;9.230;2023-10-08T03:11:33;3.67;;;1.45;;
80297;SDS011;69599;52.622;9.230;2023-10-08T03:14:01;2.50;;;0.90;;
80297;SDS011;69599;52.622;9.230;2023-10-08T03:16:26;1.35;;;0.57;;
80297;SDS011;69599;52.622;9.230;2023-10-08T03:19:00;1.05;;;0.50;;
80297;SDS011;69599;52.622;9.230;2023-10-08T03:21:26;2.03;;;0.60;;
80297;SDS011;69599;52.622;9.230;2023-10-08T03:24:03;1.33;;;0.55;;
80297;SDS011;69599;52.622;9.230;2023-10-08T03:26:40;1.35;;;0.70;;
80297;SDS011;69599;52.622;9.230;2023-10-08T03:29:10;2.92;;;0.85;;
80297;SDS011;69599;52.622;9.230;2023-10-08T03:31:42;1.65;;;0.57;;
80297;SDS011;69599;52.622;9.230;2023-10-08T03:34:14;1.40;;;0.70;;
80297;SDS011;69599;52.622;9.230;2023-10-08T03:36:41;1.88;;;0.70;;
80297;SDS011;69599;52.622;9.230;2023-10-08T03:39:10;1.70;;;0.60;;
80297;SDS011;69599;52.622;9.230;2023-10-08T03:41:38;1.88;;;0.60;;
80297;SDS011;69599;52.622;9.230;2023-10-08T03:44:05;1.63;;;0.70;;
80297;SDS011;69599;52.622;9.230;2023-10-08T03:46:35;2.70;;;1.33;;
80297;SDS011;69599;52.622;9.230;2023-10-08T03:49:04;1.35;;;0.60;;
80297;SDS011;69599;52.622;9.230;2023-10-08T03:51:37;1.25;;;0.60;;
80297;SDS011;69599;52.622;9.230;2023-10-08T03:54:05;1.33;;;0.60;;
80297;SDS011;69599;52.622;9.230;2023-10-08T03:56:39;4.15;;;1.00;;
80297;SDS011;69599;52.622;9.230;2023-10-08T03:59:10;2.10;;;0.73;;
80297;SDS011;69599;52.622;9.230;2023-10-08T04:01:42;2.22;;;0.90;;
80297;SDS011;69599;52.622;9.230;2023-10-08T04:04:08;2.35;;;0.88;;
80297;SDS011;69599;52.622;9.230;2023-10-08T04:06:40;2.20;;;0.98;;
80297;SDS011;69599;52.622;9.230;2023-10-08T04:09:14;4.18;;;1.45;;
80297;SDS011;69599;52.622;9.230;2023-10-08T04:11:46;2.83;;;1.23;;
80297;SDS011;69599;52.622;9.230;2023-10-08T04:14:14;1.35;;;0.80;;
80297;SDS011;69599;52.622;9.230;2023-10-08T04:16:41;2.40;;;1.10;;
80297;SDS011;69599;52.622;9.230;2023-10-08T04:19:07;2.75;;;1.10;;
80297;SDS011;69599;52.622;9.230;2023-10-08T04:21:33;3.00;;;1.08;;
80297;SDS011;69599;52.622;9.230;2023-10-08T04:23:59;5.20;;;1.80;;
80297;SDS011;69599;52.622;9.230;2023-10-08T04:26:29;3.35;;;1.10;;
80297;SDS011;69599;52.622;9.230;2023-10-08T04:28:57;3.38;;;1.25;;
80297;SDS011;69599;52.622;9.230;2023-10-08T04:31:25;2.83;;;0.80;;
80297;SDS011;69599;52.622;9.230;2023-10-08T04:33:53;7.28;;;2.08;;
80297;SDS011;69599;52.622;9.230;2023-10-08T04:36:19;4.30;;;1.80;;
80297;SDS011;69599;52.622;9.230;2023-10-08T04:38:45;4.60;;;1.55;;
80297;SDS011;69599;52.622;9.230;2023-10-08T04:41:14;2.00;;;1.20;;
80297;SDS011;69599;52.622;9.230;2023-10-08T04:43:43;4.22;;;1.20;;
80297;SDS011;69599;52.622;9.230;2023-10-08T04:46:09;3.00;;;1.25;;
80297;SDS011;69599;52.622;9.230;2023-10-08T04:48:59;3.00;;;1.33;;
80297;SDS011;69599;52.622;9.230;2023-10-08T04:51:30;4.40;;;1.30;;
80297;SDS011;69599;52.622;9.230;2023-10-08T04:53:59;2.75;;;1.30;;
80297;SDS011;69599;52.622;9.230;2023-10-08T04:56:26;2.65;;;1.30;;
80297;SDS011;69599;52.622;9.230;2023-10-08T04:58:53;4.15;;;1.65;;
80297;SDS011;69599;52.622;9.230;2023-10-08T05:01:19;5.47;;;2.05;;
80297;SDS011;69599;52.622;9.230;2023-10-08T05:03:45;3.60;;;1.58;;
80297;SDS011;69599;52.622;9.230;2023-10-08T05:06:23;3.53;;;1.70;;
80297;SDS011;69599;52.622;9.230;2023-10-08T05:09:18;2.80;;;1.27;;
80297;SDS011;69599;52.622;9.230;2023-10-08T05:11:43;4.20;;;1.60;;
80297;SDS011;69599;52.622;9.230;2023-10-08T05:14:16;4.82;;;1.60;;
80297;SDS011;69599;52.622;9.230;2023-10-08T05:17:15;4.15;;;1.30;;
80297;SDS011;69599;52.622;9.230;2023-10-08T05:19:43;3.95;;;2.47;;
80297;SDS011;69599;52.622;9.230;2023-10-08T05:22:44;4.78;;;1.52;;
80297;SDS011;69599;52.622;9.230;2023-10-08T05:25:12;2.35;;;1.67;;
80297;SDS011;69599;52.622;9.230;2023-10-08T05:27:41;2.85;;;1.60;;
80297;SDS011;69599;52.622;9.230;2023-10-08T05:32:52;5.53;;;2.08;;
80297;SDS011;69599;52.622;9.230;2023-10-08T05:35:36;5.97;;;2.00;;
80297;SDS011;69599;52.622;9.230;2023-10-08T05:38:08;4.85;;;1.77;;
80297;SDS011;69599;52.622;9.230;2023-10-08T05:40:53;3.30;;;1.40;;
80297;SDS011;69599;52.622;9.230;2023-10-08T05:43:39;4.45;;;1.45;;
80297;SDS011;69599;52.622;9.230;2023-10-08T05:46:09;6.32;;;2.03;;
80297;SDS011;69599;52.622;9.230;2023-10-08T05:48:51;4.35;;;1.40;;
80297;SDS011;69599;52.622;9.230;2023-10-08T05:51:30;5.57;;;1.92;;
80297;SDS011;69599;52.622;9.230;2023-10-08T05:54:22;4.20;;;2.20;;
80297;SDS011;69599;52.622;9.230;2023-10-08T05:56:55;8.23;;;2.42;;
80297;SDS011;69599;52.622;9.230;2023-10-08T05:59:36;4.80;;;2.42;;
80297;SDS011;69599;52.622;9.230;2023-10-08T06:02:20;5.82;;;2.40;;
80297;SDS011;69599;52.622;9.230;2023-10-08T06:05:00;6.07;;;3.22;;
80297;SDS011;69599;52.622;9.230;2023-10-08T06:07:49;5.00;;;3.08;;
80297;SDS011;69599;52.622;9.230;2023-10-08T06:13:09;5.57;;;2.33;;
80297;SDS011;69599;52.622;9.230;2023-10-08T06:15:55;4.65;;;2.03;;
80297;SDS011;69599;52.622;9.230;2023-10-08T06:18:25;5.60;;;1.83;;
80297;SDS011;69599;52.622;9.230;2023-10-08T06:20:52;4.55;;;1.90;;
80297;SDS011;69599;52.622;9.230;2023-10-08T06:23:23;5.07;;;2.30;;
80297;SDS011;69599;52.622;9.230;2023-10-08T06:25:50;4.80;;;2.25;;
80297;SDS011;69599;52.622;9.230;2023-10-08T06:28:24;4.53;;;2.47;;
80297;SDS011;69599;52.622;9.230;2023-10-08T06:30:53;4.55;;;2.40;;
80297;SDS011;69599;52.622;9.230;2023-10-08T06:33:19;5.80;;;2.60;;
80297;SDS011;69599;52.622;9.230;2023-10-08T06:35:50;6.75;;;2.38;;
80297;SDS011;69599;52.622;9.230;2023-10-08T06:38:35;4.65;;;1.90;;
80297;SDS011;69599;52.622;9.230;2023-10-08T06:41:01;4.53;;;2.50;;
80297;SDS011;69599;52.622;9.230;2023-10-08T06:43:43;6.93;;;2.70;;
80297;SDS011;69599;52.622;9.230;2023-10-08T06:46:14;6.07;;;2.65;;
80297;SDS011;69599;52.622;9.230;2023-10-08T06:48:44;5.20;;;2.25;;
80297;SDS011;69599;52.622;9.230;2023-10-08T06:51:11;4.10;;;2.25;;
80297;SDS011;69599;52.622;9.230;2023-10-08T06:53:43;4.68;;;2.50;;
80297;SDS011;69599;52.622;9.230;2023-10-08T06:56:10;6.95;;;2.90;;
80297;SDS011;69599;52.622;9.230;2023-10-08T06:58:45;6.97;;;2.75;;
80297;SDS011;69599;52.622;9.230;2023-10-08T07:01:13;6.20;;;2.70;;
80297;SDS011;69599;52.622;9.230;2023-10-08T07:03:46;9.20;;;2.90;;
80297;SDS011;69599;52.622;9.230;2023-10-08T07:06:17;5.85;;;2.83;;
80297;SDS011;69599;52.622;9.230;2023-10-08T07:08:56;7.20;;;3.63;;
80297;SDS011;69599;52.622;9.230;2023-10-08T07:11:24;6.65;;;2.60;;
80297;SDS011;69599;52.622;9.230;2023-10-08T07:13:51;8.80;;;2.95;;
80297;SDS011;69599;52.622;9.230;2023-10-08T07:16:17;6.20;;;3.17;;
80297;SDS011;69599;52.622;9.230;2023-10-08T07:18:44;7.43;;;2.83;;
80297;SDS011;69599;52.622;9.230;2023-10-08T07:21:20;6.95;;;2.95;;
80297;SDS011;69599;52.622;9.230;2023-10-08T07:23:53;8.20;;;3.50;;
80297;SDS011;69599;52.622;9.230;2023-10-08T07:26:22;6.18;;;2.70;;
80297;SDS011;69599;52.622;9.230;2023-10-08T07:28:51;6.82;;;3.08;;
80297;SDS011;69599;52.622;9.230;2023-10-08T07:31:18;7.15;;;3.42;;
80297;SDS011;69599;52.622;9.230;2023-10-08T07:33:53;6.78;;;3.03;;
80297;SDS011;69599;52.622;9.230;2023-10-08T07:36:25;8.38;;;3.65;;
80297;SDS011;69599;52.622;9.230;2023-10-08T07:38:52;9.20;;;3.33;;
80297;SDS011;69599;52.622;9.230;2023-10-08T07:41:18;7.40;;;3.08;;
80297;SDS011;69599;52.622;9.230;2023-10-08T07:43:45;7.00;;;3.97;;
80297;SDS011;69599;52.622;9.230;2023-10-08T07:46:18;5.57;;;3.35;;
80297;SDS011;69599;52.622;9.230;2023-10-08T07:48:43;7.38;;;3.88;;
80297;SDS011;69599;52.622;9.230;2023-10-08T07:51:09;5.10;;;2.95;;
80297;SDS011;69599;52.622;9.230;2023-10-08T07:53:34;5.95;;;3.40;;
80297;SDS011;69599;52.622;9.230;2023-10-08T07:56:05;7.45;;;3.72;;
80297;SDS011;69599;52.622;9.230;2023-10-08T07:58:32;5.32;;;2.67;;
80297;SDS011;69599;52.622;9.230;2023-10-08T08:01:02;7.97;;;3.17;;
80297;SDS011;69599;52.622;9.230;2023-10-08T08:03:39;4.63;;;3.00;;
80297;SDS011;69599;52.622;9.230;2023-10-08T08:06:09;6.28;;;3.13;;
80297;SDS011;69599;52.622;9.230;2023-10-08T08:08:35;6.13;;;2.80;;
80297;SDS011;69599;52.622;9.230;2023-10-08T08:11:02;5.18;;;2.72;;
80297;SDS011;69599;52.622;9.230;2023-10-08T08:13:31;4.22;;;2.60;;
80297;SDS011;69599;52.622;9.230;2023-10-08T08:15:58;5.82;;;3.03;;
80297;SDS011;69599;52.622;9.230;2023-10-08T08:18:34;9.18;;;3.20;;
80297;SDS011;69599;52.622;9.230;2023-10-08T08:21:02;5.10;;;2.90;;
80297;SDS011;69599;52.622;9.230;2023-10-08T08:23:28;4.63;;;2.83;;
80297;SDS011;69599;52.622;9.230;2023-10-08T08:25:55;8.45;;;3.10;;
80297;SDS011;69599;52.622;9.230;2023-10-08T08:28:36;7.22;;;3.25;;
80297;SDS011;69599;52.622;9.230;2023-10-08T08:31:02;5.75;;;3.08;;
80297;SDS011;69599;52.622;9.230;2023-10-08T08:33:55;4.72;;;2.33;;
80297;SDS011;69599;52.622;9.230;2023-10-08T08:36:27;6.50;;;2.67;;
80297;SDS011;69599;52.622;9.230;2023-10-08T08:38:54;7.10;;;2.72;;
80297;SDS011;69599;52.622;9.230;2023-10-08T08:41:20;5.38;;;2.47;;
80297;SDS011;69599;52.622;9.230;2023-10-08T08:43:51;4.85;;;2.22;;
80297;SDS011;69599;52.622;9.230;2023-10-08T08:46:32;5.78;;;2.00;;
80297;SDS011;69599;52.622;9.230;2023-10-08T08:49:00;6.25;;;2.13;;
80297;SDS011;69599;52.622;9.230;2023-10-08T08:51:28;7.70;;;1.52;;
80297;SDS011;69599;52.622;9.230;2023-10-08T08:53:55;3.75;;;1.52;;
80297;SDS011;69599;52.622;9.230;2023-10-08T08:56:20;3.50;;;1.33;;
80297;SDS011;69599;52.622;9.230;2023-10-08T08:58:47;4.47;;;1.42;;
80297;SDS011;69599;52.622;9.230;2023-10-08T09:01:14;3.67;;;1.45;;
80297;SDS011;69599;52.622;9.230;2023-10-08T09:03:40;4.95;;;1.60;;
80297;SDS011;69599;52.622;9.230;2023-10-08T09:06:05;5.13;;;1.55;;
80297;SDS011;69599;52.622;9.230;2023-10-08T09:08:37;4.53;;;1.40;;
80297;SDS011;69599;52.622;9.230;2023-10-08T09:11:07;4.68;;;1.55;;
80297;SDS011;69599;52.622;9.230;2023-10-08T09:13:33;5.03;;;2.13;;
80297;SDS011;69599;52.622;9.230;2023-10-08T09:16:13;7.10;;;1.40;;
80297;SDS011;69599;52.622;9.230;2023-10-08T09:18:47;4.07;;;1.40;;
80297;SDS011;69599;52.622;9.230;2023-10-08T09:21:16;5.65;;;1.42;;
80297;SDS011;69599;52.622;9.230;2023-10-08T09:23:51;4.18;;;1.05;;
80297;SDS011;69599;52.622;9.230;2023-10-08T09:26:17;3.85;;;1.13;;
80297;SDS011;69599;52.622;9.230;2023-10-08T09:28:45;4.50;;;1.17;;
80297;SDS011;69599;52.622;9.230;2023-10-08T09:31:14;5.13;;;1.00;;
80297;SDS011;69599;52.622;9.230;2023-10-08T09:33:40;2.42;;;0.90;;
80297;SDS011;69599;52.622;9.230;2023-10-08T09:36:07;5.50;;;1.10;;
80297;SDS011;69599;52.622;9.230;2023-10-08T09:38:36;5.50;;;1.10;;
80297;SDS011;69599;52.622;9.230;2023-10-08T09:43:30;11.52;;;3.53;;
80297;SDS011;69599;52.622;9.230;2023-10-08T09:46:03;2.80;;;1.00;;
80297;SDS011;69599;52.622;9.230;2023-10-08T09:48:37;6.15;;;1.25;;
80297;SDS011;69599;52.622;9.230;2023-10-08T09:51:03;5.07;;;1.30;;
80297;SDS011;69599;52.622;9.230;2023-10-08T09:53:43;6.78;;;1.02;;
80297;SDS011;69599;52.622;9.230;2023-10-08T09:56:13;3.63;;;1.00;;
80297;SDS011;69599;52.622;9.230;2023-10-08T09:58:40;6.68;;;0.98;;
80297;SDS011;69599;52.622;9.230;2023-10-08T10:01:06;6.38;;;1.23;;
80297;SDS011;69599;52.622;9.230;2023-10-08T10:03:33;4.00;;;1.30;;
80297;SDS011;69599;52.622;9.230;2023-10-08T10:06:01;7.20;;;1.10;;
80297;SDS011;69599;52.622;9.230;2023-10-08T10:08:27;6.07;;;1.65;;
80297;SDS011;69599;52.622;9.230;2023-10-08T10:11:00;6.53;;;1.08;;
80297;SDS011;69599;52.622;9.230;2023-10-08T10:13:34;7.03;;;1.63;;
80297;SDS011;69599;52.622;9.230;2023-10-08T10:16:00;4.55;;;0.85;;
80297;SDS011;69599;52.622;9.230;2023-10-08T10:20:53;4.95;;;0.90;;
80297;SDS011;69599;52.622;9.230;2023-10-08T10:23:44;5.05;;;1.10;;
80297;SDS011;69599;52.622;9.230;2023-10-08T10:31:54;4.65;;;0.88;;
80297;SDS011;69599;52.622;9.230;2023-10-08T10:34:28;6.82;;;0.90;;
80297;SDS011;69599;52.622;9.230;2023-10-08T10:36:57;5.10;;;0.90;;
80297;SDS011;69599;52.622;9.230;2023-10-08T10:39:25;7.25;;;1.10;;
80297;SDS011;69599;52.622;9.230;2023-10-08T10:41:51;4.43;;;1.10;;
80297;SDS011;69599;52.622;9.230;2023-10-08T10:44:28;3.88;;;1.00;;
80297;SDS011;69599;52.622;9.230;2023-10-08T10:46:58;4.40;;;0.88;;
80297;SDS011;69599;52.622;9.230;2023-10-08T10:49:42;5.85;;;0.90;;
80297;SDS011;69599;52.622;9.230;2023-10-08T10:52:22;4.80;;;1.00;;
80297;SDS011;69599;52.622;9.230;2023-10-08T10:55:12;4.95;;;1.05;;
80297;SDS011;69599;52.622;9.230;2023-10-08T10:57:39;6.38;;;1.40;;
80297;SDS011;69599;52.622;9.230;2023-10-08T11:00:43;5.28;;;1.00;;
80297;SDS011;69599;52.622;9.230;2023-10-08T11:03:09;2.28;;;0.98;;
80297;SDS011;69599;52.622;9.230;2023-10-08T11:05:54;4.80;;;0.90;;
80297;SDS011;69599;52.622;9.230;2023-10-08T11:08:31;5.47;;;0.88;;
80297;SDS011;69599;52.622;9.230;2023-10-08T11:11:00;5.95;;;1.25;;
80297;SDS011;69599;52.622;9.230;2023-10-08T11:13:32;5.90;;;1.50;;
80297;SDS011;69599;52.622;9.230;2023-10-08T11:16:06;3.80;;;1.02;;
80297;SDS011;69599;52.622;9.230;2023-10-08T11:18:34;7.20;;;1.20;;
80297;SDS011;69599;52.622;9.230;2023-10-08T11:21:06;14.93;;;4.75;;
80297;SDS011;69599;52.622;9.230;2023-10-08T11:26:11;11.43;;;3.00;;
80297;SDS011;69599;52.622;9.230;2023-10-08T11:28:40;5.05;;;1.42;;
80297;SDS011;69599;52.622;9.230;2023-10-08T11:31:11;4.00;;;0.90;;
80297;SDS011;69599;52.622;9.230;2023-10-08T11:33:42;9.07;;;3.03;;
80297;SDS011;69599;52.622;9.230;2023-10-08T11:36:19;5.60;;;1.10;;
80297;SDS011;69599;52.622;9.230;2023-10-08T11:38:46;9.68;;;3.10;;
80297;SDS011;69599;52.622;9.230;2023-10-08T11:41:16;3.47;;;1.00;;
80297;SDS011;69599;52.622;9.230;2023-10-08T11:46:29;4.90;;;1.23;;
80297;SDS011;69599;52.622;9.230;2023-10-08T11:49:05;3.63;;;0.75;;
80297;SDS011;69599;52.622;9.230;2023-10-08T11:51:33;4.68;;;0.70;;
80297;SDS011;69599;52.622;9.230;2023-10-08T11:54:02;5.18;;;0.80;;
80297;SDS011;69599;52.622;9.230;2023-10-08T11:56:31;4.25;;;1.50;;
80297;SDS011;69599;52.622;9.230;2023-10-08T11:58:58;2.63;;;1.30;;
80297;SDS011;69599;52.622;9.230;2023-10-08T12:01:25;4.65;;;0.90;;
80297;SDS011;69599;52.622;9.230;2023-10-08T12:03:52;4.82;;;0.65;;
80297;SDS011;69599;52.622;9.230;2023-10-08T12:06:17;6.97;;;1.08;;
80297;SDS011;69599;52.622;9.230;2023-10-08T12:08:46;4.10;;;0.80;;
80297;SDS011;69599;52.622;9.230;2023-10-08T12:11:14;2.22;;;0.65;;
80297;SDS011;69599;52.622;9.230;2023-10-08T12:13:40;6.07;;;0.90;;
80297;SDS011;69599;52.622;9.230;2023-10-08T12:16:10;7.28;;;1.10;;
80297;SDS011;69599;52.622;9.230;2023-10-08T12:18:46;2.60;;;0.77;;
80297;SDS011;69599;52.622;9.230;2023-10-08T12:21:19;5.15;;;1.13;;
80297;SDS011;69599;52.622;9.230;2023-10-08T12:23:45;3.40;;;0.70;;
80297;SDS011;69599;52.622;9.230;2023-10-08T12:26:12;4.75;;;0.82;;
80297;SDS011;69599;52.622;9.230;2023-10-08T12:28:41;4.65;;;0.95;;
80297;SDS011;69599;52.622;9.230;2023-10-08T12:31:19;4.68;;;0.80;;
80297;SDS011;69599;52.622;9.230;2023-10-08T12:33:52;5.68;;;0.93;;
80297;SDS011;69599;52.622;9.230;2023-10-08T12:36:25;2.72;;;0.70;;
80297;SDS011;69599;52.622;9.230;2023-10-08T12:38:52;5.38;;;0.90;;
80297;SDS011;69599;52.622;9.230;2023-10-08T12:41:27;3.58;;;0.90;;
80297;SDS011;69599;52.622;9.230;2023-10-08T12:43:52;2.60;;;1.02;;
80297;SDS011;69599;52.622;9.230;2023-10-08T12:46:18;3.85;;;1.30;;
80297;SDS011;69599;52.622;9.230;2023-10-08T12:48:48;3.58;;;0.60;;
80297;SDS011;69599;52.622;9.230;2023-10-08T12:51:18;3.17;;;0.82;;
80297;SDS011;69599;52.622;9.230;2023-10-08T12:53:48;3.78;;;0.98;;
80297;SDS011;69599;52.622;9.230;2023-10-08T12:56:23;4.75;;;0.77;;
80297;SDS011;69599;52.622;9.230;2023-10-08T12:58:57;5.40;;;1.15;;
80297;SDS011;69599;52.622;9.230;2023-10-08T13:01:23;5.20;;;1.23;;
80297;SDS011;69599;52.622;9.230;2023-10-08T13:03:48;2.85;;;0.85;;
80297;SDS011;69599;52.622;9.230;2023-10-08T13:06:14;5.00;;;0.82;;
80297;SDS011;69599;52.622;9.230;2023-10-08T13:08:47;7.97;;;1.33;;
80297;SDS011;69599;52.622;9.230;2023-10-08T13:11:18;4.45;;;1.00;;
80297;SDS011;69599;52.622;9.230;2023-10-08T13:13:50;4.72;;;1.23;;
80297;SDS011;69599;52.622;9.230;2023-10-08T13:16:17;1.80;;;0.90;;
80297;SDS011;69599;52.622;9.230;2023-10-08T13:18:43;4.47;;;0.88;;
80297;SDS011;69599;52.622;9.230;2023-10-08T13:21:09;3.70;;;1.00;;
80297;SDS011;69599;52.622;9.230;2023-10-08T13:23:35;2.85;;;1.05;;
80297;SDS011;69599;52.622;9.230;2023-10-08T13:26:01;5.25;;;1.08;;
80297;SDS011;69599;52.622;9.230;2023-10-08T13:28:30;3.53;;;0.90;;
80297;SDS011;69599;52.622;9.230;2023-10-08T13:30:58;2.22;;;0.95;;
80297;SDS011;69599;52.622;9.230;2023-10-08T13:33:36;6.88;;;1.25;;
80297;SDS011;69599;52.622;9.230;2023-10-08T13:36:07;5.47;;;1.10;;
80297;SDS011;69599;52.622;9.230;2023-10-08T13:38:37;3.08;;;1.00;;
80297;SDS011;69599;52.622;9.230;2023-10-08T13:41:05;8.52;;;1.00;;
80297;SDS011;69599;52.622;9.230;2023-10-08T13:43:39;2.30;;;1.00;;
80297;SDS011;69599;52.622;9.230;2023-10-08T13:46:10;5.15;;;0.90;;
80297;SDS011;69599;52.622;9.230;2023-10-08T13:48:40;9.32;;;1.42;;
80297;SDS011;69599;52.622;9.230;2023-10-08T13:51:06;6.47;;;1.15;;
80297;SDS011;69599;52.622;9.230;2023-10-08T13:53:38;5.38;;;1.00;;
80297;SDS011;69599;52.622;9.230;2023-10-08T13:56:10;4.88;;;1.13;;
80297;SDS011;69599;52.622;9.230;2023-10-08T13:58:36;4.95;;;1.45;;
80297;SDS011;69599;52.622;9.230;2023-10-08T14:01:06;5.97;;;1.45;;
80297;SDS011;69599;52.622;9.230;2023-10-08T14:03:44;4.75;;;1.08;;
80297;SDS011;69599;52.622;9.230;2023-10-08T14:06:10;6.25;;;1.55;;
80297;SDS011;69599;52.622;9.230;2023-10-08T14:08:36;6.90;;;1.58;;
80297;SDS011;69599;52.622;9.230;2023-10-08T14:11:04;5.63;;;2.03;;
80297;SDS011;69599;52.622;9.230;2023-10-08T14:13:30;8.18;;;2.40;;
80297;SDS011;69599;52.622;9.230;2023-10-08T14:15:57;3.35;;;0.85;;
80297;SDS011;69599;52.622;9.230;2023-10-08T14:18:30;2.53;;;0.82;;
80297;SDS011;69599;52.622;9.230;2023-10-08T14:21:05;6.10;;;1.33;;
80297;SDS011;69599;52.622;9.230;2023-10-08T14:23:35;1.90;;;1.00;;
80297;SDS011;69599;52.622;9.230;2023-10-08T14:26:07;4.65;;;0.90;;
80297;SDS011;69599;52.622;9.230;2023-10-08T14:28:34;5.13;;;1.08;;
80297;SDS011;69599;52.622;9.230;2023-10-08T14:31:09;4.78;;;1.33;;
80297;SDS011;69599;52.622;9.230;2023-10-08T14:33:41;6.88;;;2.95;;
80297;SDS011;69599;52.622;9.230;2023-10-08T14:36:09;6.05;;;1.00;;
80297;SDS011;69599;52.622;9.230;2023-10-08T14:38:53;6.00;;;1.75;;
80297;SDS011;69599;52.622;9.230;2023-10-08T14:41:37;3.08;;;1.20;;
80297;SDS011;69599;52.622;9.230;2023-10-08T14:44:21;5.85;;;1.15;;
80297;SDS011;69599;52.622;9.230;2023-10-08T14:46:46;3.22;;;1.05;;
80297;SDS011;69599;52.622;9.230;2023-10-08T14:49:11;5.43;;;1.52;;
80297;SDS011;69599;52.622;9.230;2023-10-08T14:51:37;6.30;;;1.52;;
80297;SDS011;69599;52.622;9.230;2023-10-08T14:54:05;4.45;;;1.10;;
80297;SDS011;69599;52.622;9.230;2023-10-08T14:56:32;3.95;;;0.98;;
80297;SDS011;69599;52.622;9.230;2023-10-08T14:58:59;4.35;;;0.93;;
80297;SDS011;69599;52.622;9.230;2023-10-08T15:01:26;3.88;;;0.93;;
80297;SDS011;69599;52.622;9.230;2023-10-08T15:03:51;3.50;;;1.10;;
80297;SDS011;69599;52.622;9.230;2023-10-08T15:06:17;3.22;;;1.00;;
80297;SDS011;69599;52.622;9.230;2023-10-08T15:08:44;3.25;;;1.10;;
80297;SDS011;69599;52.622;9.230;2023-10-08T15:11:09;4.82;;;1.40;;
80297;SDS011;69599;52.622;9.230;2023-10-08T15:13:35;5.18;;;1.20;;
80297;SDS011;69599;52.622;9.230;2023-10-08T15:16:04;5.97;;;1.33;;
80297;SDS011;69599;52.622;9.230;2023-10-08T15:18:30;4.00;;;1.10;;
80297;SDS011;69599;52.622;9.230;2023-10-08T15:20:57;7.03;;;1.63;;
80297;SDS011;69599;52.622;9.230;2023-10-08T15:23:23;5.45;;;1.10;;
80297;SDS011;69599;52.622;9.230;2023-10-08T15:25:52;4.35;;;1.42;;
80297;SDS011;69599;52.622;9.230;2023-10-08T15:28:18;4.57;;;1.20;;
80297;SDS011;69599;52.622;9.230;2023-10-08T15:30:43;4.85;;;1.55;;
80297;SDS011;69599;52.622;9.230;2023-10-08T15:33:10;3.38;;;1.08;;